sensor_id;sensor_type;location;lat;lon;timestamp;P1;durP1;ratioP1;P2;durP2;ratioP2
6787;SDS011;3431;47.966;10.268;2023-12-04T00:00:21;3.28;;;2.97;;
6787;SDS011;3431;47.966;10.268;2023-12-04T00:00:42;3.15;;;2.78;;
6787;SDS011;3431;47.966;10.268;2023-12-04T00:01:05;3.15;;;2.85;;
6787;SDS011;3431;47.966;10.268;2023-12-04T00:01:27;2.97;;;2.72;;
6787;SDS011;3431;47.966;10.268;2023-12-04T00:01:50;3.03;;;2.72;;
6787;SDS011;3431;47.966;10.268;2023-12-04T00:02:11;3.28;;;2.97;;
6787;SDS011;3431;47.966;10.268;2023-12-04T00:02:33;2.97;;;2.45;;
6787;SDS011;3431;47.966;10.268;2023-12-04T00:02:54;2.55;;;2.35;;
6787;SDS011;3431;47.966;10.268;2023-12-04T00:03:17;2.83;;;2.63;;
6787;SDS011;3431;47.966;10.268;2023-12-04T00:03:38;2.95;;;2.65;;
6787;SDS011;3431;47.966;10.268;2023-12-04T00:04:00;3.23;;;2.90;;
6787;SDS011;3431;47.966;10.268;2023-12-04T00:04:22;4.22;;;3.15;;
6787;SDS011;3431;47.966;10.268;2023-12-04T00:04:44;3.63;;;2.83;;
6787;SDS011;3431;47.966;10.268;2023-12-04T00:05:06;2.95;;;2.65;;
6787;SDS011;3431;47.966;10.268;2023-12-04T00:05:30;3.60;;;2.80;;
6787;SDS011;3431;47.966;10.268;2023-12-04T00:05:52;3.70;;;2.88;;
6787;SDS011;3431;47.966;10.268;2023-12-04T00:06:13;3.38;;;2.90;;
6787;SDS011;3431;47.966;10.268;2023-12-04T00:06:35;2.78;;;2.53;;
6787;SDS011;3431;47.966;10.268;2023-12-04T00:06:56;2.97;;;2.65;;
6787;SDS011;3431;47.966;10.268;2023-12-04T00:07:19;3.22;;;2.72;;
6787;SDS011;3431;47.966;10.268;2023-12-04T00:07:40;3.07;;;2.77;;
6787;SDS011;3431;47.966;10.268;2023-12-04T00:08:02;3.10;;;2.80;;
6787;SDS011;3431;47.966;10.268;2023-12-04T00:08:24;2.80;;;2.60;;
6787;SDS011;3431;47.966;10.268;2023-12-04T00:08:45;3.33;;;3.03;;
6787;SDS011;3431;47.966;10.268;2023-12-04T00:09:08;3.13;;;2.83;;
6787;SDS011;3431;47.966;10.268;2023-12-04T00:09:29;3.70;;;2.88;;
6787;SDS011;3431;47.966;10.268;2023-12-04T00:09:51;4.38;;;3.20;;
6787;SDS011;3431;47.966;10.268;2023-12-04T00:10:12;3.70;;;3.03;;
6787;SDS011;3431;47.966;10.268;2023-12-04T00:10:34;3.35;;;3.00;;
6787;SDS011;3431;47.966;10.268;2023-12-04T00:10:56;3.67;;;2.97;;
6787;SDS011;3431;47.966;10.268;2023-12-04T00:11:18;3.80;;;2.80;;
6787;SDS011;3431;47.966;10.268;2023-12-04T00:11:40;3.28;;;2.65;;
6787;SDS011;3431;47.966;10.268;2023-12-04T00:12:01;4.22;;;3.20;;
6787;SDS011;3431;47.966;10.268;2023-12-04T00:12:23;3.45;;;2.90;;
6787;SDS011;3431;47.966;10.268;2023-12-04T00:12:44;3.17;;;2.85;;
6787;SDS011;3431;47.966;10.268;2023-12-04T00:13:07;3.42;;;2.88;;
6787;SDS011;3431;47.966;10.268;2023-12-04T00:13:28;3.05;;;2.78;;
6787;SDS011;3431;47.966;10.268;2023-12-04T00:13:50;3.10;;;2.72;;
6787;SDS011;3431;47.966;10.268;2023-12-04T00:14:12;2.88;;;2.50;;
6787;SDS011;3431;47.966;10.268;2023-12-04T00:14:33;3.15;;;2.85;;
6787;SDS011;3431;47.966;10.268;2023-12-04T00:14:56;3.03;;;2.83;;
6787;SDS011;3431;47.966;10.268;2023-12-04T00:15:19;3.67;;;2.80;;
6787;SDS011;3431;47.966;10.268;2023-12-04T00:15:41;3.45;;;3.05;;
6787;SDS011;3431;47.966;10.268;2023-12-04T00:16:03;3.10;;;2.80;;
6787;SDS011;3431;47.966;10.268;2023-12-04T00:16:25;3.38;;;2.95;;
6787;SDS011;3431;47.966;10.268;2023-12-04T00:16:47;3.83;;;3.15;;
6787;SDS011;3431;47.966;10.268;2023-12-04T00:17:09;3.85;;;2.97;;
6787;SDS011;3431;47.966;10.268;2023-12-04T00:17:30;3.28;;;2.83;;
6787;SDS011;3431;47.966;10.268;2023-12-04T00:17:52;2.78;;;2.55;;
6787;SDS011;3431;47.966;10.268;2023-12-04T00:18:13;2.80;;;2.60;;
6787;SDS011;3431;47.966;10.268;2023-12-04T00:18:36;3.00;;;2.70;;
6787;SDS011;3431;47.966;10.268;2023-12-04T00:18:57;3.40;;;2.72;;
6787;SDS011;3431;47.966;10.268;2023-12-04T00:19:19;4.70;;;3.00;;
6787;SDS011;3431;47.966;10.268;2023-12-04T00:19:40;3.63;;;2.92;;
6787;SDS011;3431;47.966;10.268;2023-12-04T00:20:03;3.00;;;2.70;;
6787;SDS011;3431;47.966;10.268;2023-12-04T00:20:26;3.17;;;2.78;;
6787;SDS011;3431;47.966;10.268;2023-12-04T00:20:49;2.72;;;2.53;;
6787;SDS011;3431;47.966;10.268;2023-12-04T00:21:10;2.83;;;2.60;;
6787;SDS011;3431;47.966;10.268;2023-12-04T00:21:33;3.40;;;3.10;;
6787;SDS011;3431;47.966;10.268;2023-12-04T00:21:54;3.33;;;3.03;;
6787;SDS011;3431;47.966;10.268;2023-12-04T00:22:17;3.42;;;3.13;;
6787;SDS011;3431;47.966;10.268;2023-12-04T00:22:38;2.70;;;2.50;;
6787;SDS011;3431;47.966;10.268;2023-12-04T00:23:00;3.47;;;3.03;;
6787;SDS011;3431;47.966;10.268;2023-12-04T00:23:21;3.47;;;2.88;;
6787;SDS011;3431;47.966;10.268;2023-12-04T00:23:43;3.22;;;2.83;;
6787;SDS011;3431;47.966;10.268;2023-12-04T00:24:05;3.08;;;2.60;;
6787;SDS011;3431;47.966;10.268;2023-12-04T00:24:27;3.83;;;2.95;;
6787;SDS011;3431;47.966;10.268;2023-12-04T00:24:49;4.00;;;3.00;;
6787;SDS011;3431;47.966;10.268;2023-12-04T00:25:10;3.45;;;2.83;;
6787;SDS011;3431;47.966;10.268;2023-12-04T00:25:32;3.03;;;2.60;;
6787;SDS011;3431;47.966;10.268;2023-12-04T00:25:54;3.28;;;2.70;;
6787;SDS011;3431;47.966;10.268;2023-12-04T00:26:16;3.05;;;2.53;;
6787;SDS011;3431;47.966;10.268;2023-12-04T00:26:38;3.55;;;2.90;;
6787;SDS011;3431;47.966;10.268;2023-12-04T00:26:59;3.00;;;2.80;;
6787;SDS011;3431;47.966;10.268;2023-12-04T00:27:21;3.17;;;2.88;;
6787;SDS011;3431;47.966;10.268;2023-12-04T00:27:47;3.25;;;2.75;;
6787;SDS011;3431;47.966;10.268;2023-12-04T00:28:10;3.00;;;2.70;;
6787;SDS011;3431;47.966;10.268;2023-12-04T00:28:31;3.15;;;2.90;;
6787;SDS011;3431;47.966;10.268;2023-12-04T00:28:56;3.33;;;2.88;;
6787;SDS011;3431;47.966;10.268;2023-12-04T00:29:18;3.25;;;2.95;;
6787;SDS011;3431;47.966;10.268;2023-12-04T00:29:40;3.63;;;3.08;;
6787;SDS011;3431;47.966;10.268;2023-12-04T00:30:02;3.58;;;2.83;;
6787;SDS011;3431;47.966;10.268;2023-12-04T00:30:25;3.22;;;2.92;;
6787;SDS011;3431;47.966;10.268;2023-12-04T00:30:47;3.28;;;2.97;;
6787;SDS011;3431;47.966;10.268;2023-12-04T00:31:09;3.33;;;3.00;;
6787;SDS011;3431;47.966;10.268;2023-12-04T00:31:31;3.22;;;2.88;;
6787;SDS011;3431;47.966;10.268;2023-12-04T00:31:53;3.20;;;2.83;;
6787;SDS011;3431;47.966;10.268;2023-12-04T00:32:14;3.00;;;2.70;;
6787;SDS011;3431;47.966;10.268;2023-12-04T00:32:36;3.15;;;2.85;;
6787;SDS011;3431;47.966;10.268;2023-12-04T00:32:58;2.80;;;2.60;;
6787;SDS011;3431;47.966;10.268;2023-12-04T00:33:20;3.00;;;2.80;;
6787;SDS011;3431;47.966;10.268;2023-12-04T00:33:41;2.95;;;2.65;;
6787;SDS011;3431;47.966;10.268;2023-12-04T00:34:03;2.28;;;2.08;;
6787;SDS011;3431;47.966;10.268;2023-12-04T00:34:24;3.00;;;2.58;;
6787;SDS011;3431;47.966;10.268;2023-12-04T00:34:46;3.65;;;3.00;;
6787;SDS011;3431;47.966;10.268;2023-12-04T00:35:08;3.55;;;3.00;;
6787;SDS011;3431;47.966;10.268;2023-12-04T00:35:30;3.78;;;2.90;;
6787;SDS011;3431;47.966;10.268;2023-12-04T00:35:53;2.90;;;2.60;;
6787;SDS011;3431;47.966;10.268;2023-12-04T00:36:14;3.20;;;2.80;;
6787;SDS011;3431;47.966;10.268;2023-12-04T00:36:36;3.80;;;2.90;;
6787;SDS011;3431;47.966;10.268;2023-12-04T00:36:58;3.33;;;2.80;;
6787;SDS011;3431;47.966;10.268;2023-12-04T00:37:20;3.42;;;2.90;;
6787;SDS011;3431;47.966;10.268;2023-12-04T00:37:41;3.00;;;2.78;;
6787;SDS011;3431;47.966;10.268;2023-12-04T00:38:03;3.05;;;2.85;;
6787;SDS011;3431;47.966;10.268;2023-12-04T00:38:24;3.10;;;2.80;;
6787;SDS011;3431;47.966;10.268;2023-12-04T00:38:46;2.95;;;2.72;;
6787;SDS011;3431;47.966;10.268;2023-12-04T00:39:08;3.08;;;2.78;;
6787;SDS011;3431;47.966;10.268;2023-12-04T00:39:30;4.05;;;2.90;;
6787;SDS011;3431;47.966;10.268;2023-12-04T00:39:52;2.88;;;2.60;;
6787;SDS011;3431;47.966;10.268;2023-12-04T00:40:13;3.13;;;2.85;;
6787;SDS011;3431;47.966;10.268;2023-12-04T00:40:35;3.25;;;2.80;;
6787;SDS011;3431;47.966;10.268;2023-12-04T00:40:57;2.83;;;2.60;;
6787;SDS011;3431;47.966;10.268;2023-12-04T00:41:19;3.08;;;2.78;;
6787;SDS011;3431;47.966;10.268;2023-12-04T00:41:40;2.80;;;2.60;;
6787;SDS011;3431;47.966;10.268;2023-12-04T00:42:02;2.53;;;2.33;;
6787;SDS011;3431;47.966;10.268;2023-12-04T00:42:24;2.47;;;2.28;;
6787;SDS011;3431;47.966;10.268;2023-12-04T00:42:46;2.72;;;2.53;;
6787;SDS011;3431;47.966;10.268;2023-12-04T00:43:08;3.35;;;2.58;;
6787;SDS011;3431;47.966;10.268;2023-12-04T00:43:29;5.00;;;2.47;;
6787;SDS011;3431;47.966;10.268;2023-12-04T00:43:51;4.30;;;2.40;;
6787;SDS011;3431;47.966;10.268;2023-12-04T00:44:12;2.35;;;2.15;;
6787;SDS011;3431;47.966;10.268;2023-12-04T00:44:34;2.60;;;2.40;;
6787;SDS011;3431;47.966;10.268;2023-12-04T00:44:56;3.20;;;2.67;;
6787;SDS011;3431;47.966;10.268;2023-12-04T00:45:18;3.13;;;2.45;;
6787;SDS011;3431;47.966;10.268;2023-12-04T00:45:39;2.78;;;2.53;;
6787;SDS011;3431;47.966;10.268;2023-12-04T00:46:01;3.00;;;2.70;;
6787;SDS011;3431;47.966;10.268;2023-12-04T00:46:23;2.53;;;2.33;;
6787;SDS011;3431;47.966;10.268;2023-12-04T00:46:45;2.75;;;2.40;;
6787;SDS011;3431;47.966;10.268;2023-12-04T00:47:07;2.75;;;2.47;;
6787;SDS011;3431;47.966;10.268;2023-12-04T00:47:29;3.03;;;2.60;;
6787;SDS011;3431;47.966;10.268;2023-12-04T00:47:50;2.55;;;2.35;;
6787;SDS011;3431;47.966;10.268;2023-12-04T00:48:13;2.50;;;2.30;;
6787;SDS011;3431;47.966;10.268;2023-12-04T00:48:34;2.83;;;2.58;;
6787;SDS011;3431;47.966;10.268;2023-12-04T00:48:56;2.90;;;2.53;;
6787;SDS011;3431;47.966;10.268;2023-12-04T00:49:17;3.08;;;2.78;;
6787;SDS011;3431;47.966;10.268;2023-12-04T00:49:39;3.50;;;2.72;;
6787;SDS011;3431;47.966;10.268;2023-12-04T00:50:03;2.55;;;2.35;;
6787;SDS011;3431;47.966;10.268;2023-12-04T00:50:25;2.65;;;2.40;;
6787;SDS011;3431;47.966;10.268;2023-12-04T00:50:47;2.60;;;2.40;;
6787;SDS011;3431;47.966;10.268;2023-12-04T00:51:10;2.90;;;2.60;;
6787;SDS011;3431;47.966;10.268;2023-12-04T00:51:36;2.90;;;2.60;;
6787;SDS011;3431;47.966;10.268;2023-12-04T00:52:00;2.67;;;2.47;;
6787;SDS011;3431;47.966;10.268;2023-12-04T00:52:21;2.80;;;2.60;;
6787;SDS011;3431;47.966;10.268;2023-12-04T00:52:43;2.92;;;2.63;;
6787;SDS011;3431;47.966;10.268;2023-12-04T00:53:04;3.28;;;2.90;;
6787;SDS011;3431;47.966;10.268;2023-12-04T00:53:26;2.80;;;2.60;;
6787;SDS011;3431;47.966;10.268;2023-12-04T00:53:48;2.65;;;2.33;;
6787;SDS011;3431;47.966;10.268;2023-12-04T00:54:10;2.80;;;2.55;;
6787;SDS011;3431;47.966;10.268;2023-12-04T00:54:32;3.17;;;2.78;;
6787;SDS011;3431;47.966;10.268;2023-12-04T00:54:53;3.13;;;2.60;;
6787;SDS011;3431;47.966;10.268;2023-12-04T00:55:15;2.88;;;2.40;;
6787;SDS011;3431;47.966;10.268;2023-12-04T00:55:36;4.20;;;2.88;;
6787;SDS011;3431;47.966;10.268;2023-12-04T00:55:59;3.30;;;3.00;;
6787;SDS011;3431;47.966;10.268;2023-12-04T00:56:20;3.13;;;2.83;;
6787;SDS011;3431;47.966;10.268;2023-12-04T00:56:42;2.95;;;2.75;;
6787;SDS011;3431;47.966;10.268;2023-12-04T00:57:04;2.95;;;2.70;;
6787;SDS011;3431;47.966;10.268;2023-12-04T00:57:25;3.15;;;2.60;;
6787;SDS011;3431;47.966;10.268;2023-12-04T00:57:47;3.33;;;2.70;;
6787;SDS011;3431;47.966;10.268;2023-12-04T00:58:09;2.75;;;2.55;;
6787;SDS011;3431;47.966;10.268;2023-12-04T00:58:30;3.05;;;2.70;;
6787;SDS011;3431;47.966;10.268;2023-12-04T00:58:52;3.25;;;2.63;;
6787;SDS011;3431;47.966;10.268;2023-12-04T00:59:14;2.90;;;2.60;;
6787;SDS011;3431;47.966;10.268;2023-12-04T00:59:36;2.90;;;2.60;;
6787;SDS011;3431;47.966;10.268;2023-12-04T00:59:58;3.08;;;2.72;;
6787;SDS011;3431;47.966;10.268;2023-12-04T01:00:19;3.47;;;3.17;;
6787;SDS011;3431;47.966;10.268;2023-12-04T01:00:41;3.15;;;2.83;;
6787;SDS011;3431;47.966;10.268;2023-12-04T01:01:04;3.10;;;2.80;;
6787;SDS011;3431;47.966;10.268;2023-12-04T01:01:26;4.32;;;2.92;;
6787;SDS011;3431;47.966;10.268;2023-12-04T01:01:47;3.65;;;3.03;;
6787;SDS011;3431;47.966;10.268;2023-12-04T01:02:09;3.03;;;2.65;;
6787;SDS011;3431;47.966;10.268;2023-12-04T01:02:30;2.78;;;2.50;;
6787;SDS011;3431;47.966;10.268;2023-12-04T01:02:52;2.90;;;2.60;;
6787;SDS011;3431;47.966;10.268;2023-12-04T01:03:14;2.78;;;2.50;;
6787;SDS011;3431;47.966;10.268;2023-12-04T01:03:37;2.70;;;2.50;;
6787;SDS011;3431;47.966;10.268;2023-12-04T01:03:58;2.60;;;2.40;;
6787;SDS011;3431;47.966;10.268;2023-12-04T01:04:20;2.88;;;2.63;;
6787;SDS011;3431;47.966;10.268;2023-12-04T01:04:42;3.00;;;2.75;;
6787;SDS011;3431;47.966;10.268;2023-12-04T01:05:04;3.10;;;2.80;;
6787;SDS011;3431;47.966;10.268;2023-12-04T01:05:26;3.17;;;2.90;;
6787;SDS011;3431;47.966;10.268;2023-12-04T01:05:48;3.17;;;2.85;;
6787;SDS011;3431;47.966;10.268;2023-12-04T01:06:20;3.10;;;2.60;;
6787;SDS011;3431;47.966;10.268;2023-12-04T01:06:43;2.60;;;2.40;;
6787;SDS011;3431;47.966;10.268;2023-12-04T01:07:04;2.70;;;2.50;;
6787;SDS011;3431;47.966;10.268;2023-12-04T01:07:27;3.13;;;2.83;;
6787;SDS011;3431;47.966;10.268;2023-12-04T01:07:50;2.70;;;2.50;;
6787;SDS011;3431;47.966;10.268;2023-12-04T01:08:12;2.75;;;2.55;;
6787;SDS011;3431;47.966;10.268;2023-12-04T01:08:33;2.55;;;2.35;;
6787;SDS011;3431;47.966;10.268;2023-12-04T01:08:55;2.50;;;2.30;;
6787;SDS011;3431;47.966;10.268;2023-12-04T01:09:17;2.92;;;2.45;;
6787;SDS011;3431;47.966;10.268;2023-12-04T01:09:44;3.08;;;2.78;;
6787;SDS011;3431;47.966;10.268;2023-12-04T01:10:06;3.45;;;3.00;;
6787;SDS011;3431;47.966;10.268;2023-12-04T01:10:28;2.55;;;2.35;;
6787;SDS011;3431;47.966;10.268;2023-12-04T01:10:50;2.95;;;2.40;;
6787;SDS011;3431;47.966;10.268;2023-12-04T01:11:13;4.20;;;3.35;;
6787;SDS011;3431;47.966;10.268;2023-12-04T01:11:35;2.88;;;2.67;;
6787;SDS011;3431;47.966;10.268;2023-12-04T01:11:57;2.92;;;2.65;;
6787;SDS011;3431;47.966;10.268;2023-12-04T01:12:19;2.97;;;2.67;;
6787;SDS011;3431;47.966;10.268;2023-12-04T01:12:40;3.00;;;2.60;;
6787;SDS011;3431;47.966;10.268;2023-12-04T01:13:03;3.63;;;2.57;;
6787;SDS011;3431;47.966;10.268;2023-12-04T01:13:24;2.60;;;2.40;;
6787;SDS011;3431;47.966;10.268;2023-12-04T01:13:46;2.97;;;2.67;;
6787;SDS011;3431;47.966;10.268;2023-12-04T01:14:07;3.00;;;2.50;;
6787;SDS011;3431;47.966;10.268;2023-12-04T01:14:29;2.97;;;2.70;;
6787;SDS011;3431;47.966;10.268;2023-12-04T01:14:52;3.33;;;2.70;;
6787;SDS011;3431;47.966;10.268;2023-12-04T01:15:13;2.67;;;2.33;;
6787;SDS011;3431;47.966;10.268;2023-12-04T01:15:35;2.85;;;2.58;;
6787;SDS011;3431;47.966;10.268;2023-12-04T01:15:57;2.83;;;2.35;;
6787;SDS011;3431;47.966;10.268;2023-12-04T01:16:18;2.55;;;2.35;;
6787;SDS011;3431;47.966;10.268;2023-12-04T01:16:40;2.80;;;2.60;;
6787;SDS011;3431;47.966;10.268;2023-12-04T01:17:03;2.50;;;2.30;;
6787;SDS011;3431;47.966;10.268;2023-12-04T01:17:24;2.63;;;2.42;;
6787;SDS011;3431;47.966;10.268;2023-12-04T01:17:46;2.88;;;2.58;;
6787;SDS011;3431;47.966;10.268;2023-12-04T01:18:07;3.20;;;2.90;;
6787;SDS011;3431;47.966;10.268;2023-12-04T01:18:29;3.30;;;3.00;;
6787;SDS011;3431;47.966;10.268;2023-12-04T01:18:52;2.70;;;2.50;;
6787;SDS011;3431;47.966;10.268;2023-12-04T01:19:13;2.80;;;2.60;;
6787;SDS011;3431;47.966;10.268;2023-12-04T01:19:35;3.53;;;2.80;;
6787;SDS011;3431;47.966;10.268;2023-12-04T01:19:56;3.70;;;2.53;;
6787;SDS011;3431;47.966;10.268;2023-12-04T01:20:18;3.08;;;2.75;;
6787;SDS011;3431;47.966;10.268;2023-12-04T01:20:40;3.05;;;2.75;;
6787;SDS011;3431;47.966;10.268;2023-12-04T01:21:03;3.50;;;2.67;;
6787;SDS011;3431;47.966;10.268;2023-12-04T01:21:26;2.95;;;2.65;;
6787;SDS011;3431;47.966;10.268;2023-12-04T01:21:48;2.97;;;2.75;;
6787;SDS011;3431;47.966;10.268;2023-12-04T01:22:09;3.00;;;2.80;;
6787;SDS011;3431;47.966;10.268;2023-12-04T01:22:31;3.15;;;2.90;;
6787;SDS011;3431;47.966;10.268;2023-12-04T01:22:52;3.33;;;2.90;;
6787;SDS011;3431;47.966;10.268;2023-12-04T01:23:14;3.05;;;2.75;;
6787;SDS011;3431;47.966;10.268;2023-12-04T01:23:36;2.60;;;2.40;;
6787;SDS011;3431;47.966;10.268;2023-12-04T01:23:58;2.50;;;2.30;;
6787;SDS011;3431;47.966;10.268;2023-12-04T01:24:20;2.67;;;2.33;;
6787;SDS011;3431;47.966;10.268;2023-12-04T01:24:42;2.60;;;2.38;;
6787;SDS011;3431;47.966;10.268;2023-12-04T01:25:03;2.97;;;2.40;;
6787;SDS011;3431;47.966;10.268;2023-12-04T01:25:26;2.90;;;2.42;;
6787;SDS011;3431;47.966;10.268;2023-12-04T01:25:48;2.53;;;2.33;;
6787;SDS011;3431;47.966;10.268;2023-12-04T01:26:09;2.53;;;2.33;;
6787;SDS011;3431;47.966;10.268;2023-12-04T01:26:31;3.00;;;2.72;;
6787;SDS011;3431;47.966;10.268;2023-12-04T01:26:53;2.90;;;2.60;;
6787;SDS011;3431;47.966;10.268;2023-12-04T01:27:15;2.60;;;2.40;;
6787;SDS011;3431;47.966;10.268;2023-12-04T01:27:37;2.40;;;2.20;;
6787;SDS011;3431;47.966;10.268;2023-12-04T01:27:58;2.67;;;2.40;;
6787;SDS011;3431;47.966;10.268;2023-12-04T01:28:20;3.60;;;2.92;;
6787;SDS011;3431;47.966;10.268;2023-12-04T01:28:42;3.25;;;2.67;;
6787;SDS011;3431;47.966;10.268;2023-12-04T01:29:04;3.53;;;2.55;;
6787;SDS011;3431;47.966;10.268;2023-12-04T01:29:26;2.80;;;2.60;;
6787;SDS011;3431;47.966;10.268;2023-12-04T01:29:47;2.65;;;2.45;;
6787;SDS011;3431;47.966;10.268;2023-12-04T01:30:09;2.38;;;2.17;;
6787;SDS011;3431;47.966;10.268;2023-12-04T01:30:32;2.63;;;2.42;;
6787;SDS011;3431;47.966;10.268;2023-12-04T01:30:53;2.40;;;2.20;;
6787;SDS011;3431;47.966;10.268;2023-12-04T01:31:16;2.67;;;2.47;;
6787;SDS011;3431;47.966;10.268;2023-12-04T01:31:37;2.67;;;2.47;;
6787;SDS011;3431;47.966;10.268;2023-12-04T01:31:59;2.50;;;2.30;;
6787;SDS011;3431;47.966;10.268;2023-12-04T01:32:20;2.80;;;2.60;;
6787;SDS011;3431;47.966;10.268;2023-12-04T01:32:42;2.95;;;2.70;;
6787;SDS011;3431;47.966;10.268;2023-12-04T01:33:04;2.80;;;2.60;;
6787;SDS011;3431;47.966;10.268;2023-12-04T01:33:26;2.85;;;2.33;;
6787;SDS011;3431;47.966;10.268;2023-12-04T01:33:47;2.33;;;2.13;;
6787;SDS011;3431;47.966;10.268;2023-12-04T01:34:09;2.60;;;2.40;;
6787;SDS011;3431;47.966;10.268;2023-12-04T01:34:30;2.35;;;2.15;;
6787;SDS011;3431;47.966;10.268;2023-12-04T01:34:53;2.60;;;2.40;;
6787;SDS011;3431;47.966;10.268;2023-12-04T01:35:15;2.75;;;2.55;;
6787;SDS011;3431;47.966;10.268;2023-12-04T01:35:37;2.78;;;2.58;;
6787;SDS011;3431;47.966;10.268;2023-12-04T01:35:58;2.70;;;2.50;;
6787;SDS011;3431;47.966;10.268;2023-12-04T01:36:20;2.80;;;2.50;;
6787;SDS011;3431;47.966;10.268;2023-12-04T01:36:43;2.65;;;2.40;;
6787;SDS011;3431;47.966;10.268;2023-12-04T01:37:05;3.80;;;2.75;;
6787;SDS011;3431;47.966;10.268;2023-12-04T01:37:26;2.87;;;2.57;;
6787;SDS011;3431;47.966;10.268;2023-12-04T01:37:48;2.97;;;2.67;;
6787;SDS011;3431;47.966;10.268;2023-12-04T01:38:09;3.13;;;2.83;;
6787;SDS011;3431;47.966;10.268;2023-12-04T01:38:31;4.30;;;2.78;;
6787;SDS011;3431;47.966;10.268;2023-12-04T01:38:53;2.88;;;2.55;;
6787;SDS011;3431;47.966;10.268;2023-12-04T01:39:15;2.58;;;2.38;;
6787;SDS011;3431;47.966;10.268;2023-12-04T01:39:36;2.60;;;2.40;;
6787;SDS011;3431;47.966;10.268;2023-12-04T01:39:58;2.85;;;2.65;;
6787;SDS011;3431;47.966;10.268;2023-12-04T01:40:19;2.67;;;2.47;;
6787;SDS011;3431;47.966;10.268;2023-12-04T01:40:42;2.55;;;2.35;;
6787;SDS011;3431;47.966;10.268;2023-12-04T01:41:04;3.33;;;2.88;;
6787;SDS011;3431;47.966;10.268;2023-12-04T01:41:26;3.13;;;2.83;;
6787;SDS011;3431;47.966;10.268;2023-12-04T01:41:47;2.83;;;2.60;;
6787;SDS011;3431;47.966;10.268;2023-12-04T01:42:09;2.90;;;2.70;;
6787;SDS011;3431;47.966;10.268;2023-12-04T01:42:31;2.70;;;2.50;;
6787;SDS011;3431;47.966;10.268;2023-12-04T01:42:53;2.45;;;2.25;;
6787;SDS011;3431;47.966;10.268;2023-12-04T01:43:15;2.50;;;2.30;;
6787;SDS011;3431;47.966;10.268;2023-12-04T01:43:37;3.30;;;2.75;;
6787;SDS011;3431;47.966;10.268;2023-12-04T01:43:58;2.97;;;2.60;;
6787;SDS011;3431;47.966;10.268;2023-12-04T01:44:20;2.97;;;2.67;;
6787;SDS011;3431;47.966;10.268;2023-12-04T01:44:43;3.53;;;2.85;;
6787;SDS011;3431;47.966;10.268;2023-12-04T01:45:05;3.10;;;2.70;;
6787;SDS011;3431;47.966;10.268;2023-12-04T01:45:28;2.38;;;2.15;;
6787;SDS011;3431;47.966;10.268;2023-12-04T01:45:49;3.55;;;2.67;;
6787;SDS011;3431;47.966;10.268;2023-12-04T01:46:13;2.97;;;2.70;;
6787;SDS011;3431;47.966;10.268;2023-12-04T01:46:36;3.03;;;2.78;;
6787;SDS011;3431;47.966;10.268;2023-12-04T01:46:59;3.30;;;2.70;;
6787;SDS011;3431;47.966;10.268;2023-12-04T01:47:21;2.90;;;2.60;;
6787;SDS011;3431;47.966;10.268;2023-12-04T01:47:42;3.25;;;2.42;;
6787;SDS011;3431;47.966;10.268;2023-12-04T01:48:04;2.70;;;2.50;;
6787;SDS011;3431;47.966;10.268;2023-12-04T01:48:27;2.70;;;2.50;;
6787;SDS011;3431;47.966;10.268;2023-12-04T01:48:50;2.67;;;2.40;;
6787;SDS011;3431;47.966;10.268;2023-12-04T01:49:12;2.70;;;2.50;;
6787;SDS011;3431;47.966;10.268;2023-12-04T01:49:34;2.42;;;2.22;;
6787;SDS011;3431;47.966;10.268;2023-12-04T01:49:56;2.58;;;2.38;;
6787;SDS011;3431;47.966;10.268;2023-12-04T01:50:18;2.60;;;2.30;;
6787;SDS011;3431;47.966;10.268;2023-12-04T01:50:41;3.00;;;2.42;;
6787;SDS011;3431;47.966;10.268;2023-12-04T01:51:03;2.72;;;2.53;;
6787;SDS011;3431;47.966;10.268;2023-12-04T01:51:28;2.63;;;2.42;;
6787;SDS011;3431;47.966;10.268;2023-12-04T01:51:52;2.60;;;2.40;;
6787;SDS011;3431;47.966;10.268;2023-12-04T01:52:15;2.55;;;2.35;;
6787;SDS011;3431;47.966;10.268;2023-12-04T01:52:37;2.60;;;2.40;;
6787;SDS011;3431;47.966;10.268;2023-12-04T01:52:59;2.75;;;2.50;;
6787;SDS011;3431;47.966;10.268;2023-12-04T01:53:20;3.13;;;2.63;;
6787;SDS011;3431;47.966;10.268;2023-12-04T01:53:42;3.15;;;2.85;;
6787;SDS011;3431;47.966;10.268;2023-12-04T01:54:05;2.70;;;2.50;;
6787;SDS011;3431;47.966;10.268;2023-12-04T01:54:30;3.55;;;2.50;;
6787;SDS011;3431;47.966;10.268;2023-12-04T01:54:52;2.80;;;2.60;;
6787;SDS011;3431;47.966;10.268;2023-12-04T01:55:14;3.00;;;2.45;;
6787;SDS011;3431;47.966;10.268;2023-12-04T01:55:36;2.75;;;2.53;;
6787;SDS011;3431;47.966;10.268;2023-12-04T01:55:59;2.80;;;2.60;;
6787;SDS011;3431;47.966;10.268;2023-12-04T01:56:21;2.80;;;2.50;;
6787;SDS011;3431;47.966;10.268;2023-12-04T01:56:42;2.88;;;2.58;;
6787;SDS011;3431;47.966;10.268;2023-12-04T01:57:05;2.88;;;2.40;;
6787;SDS011;3431;47.966;10.268;2023-12-04T01:57:27;3.40;;;2.63;;
6787;SDS011;3431;47.966;10.268;2023-12-04T01:57:50;2.63;;;2.40;;
6787;SDS011;3431;47.966;10.268;2023-12-04T01:58:12;2.70;;;2.42;;
6787;SDS011;3431;47.966;10.268;2023-12-04T01:58:34;2.63;;;2.30;;
6787;SDS011;3431;47.966;10.268;2023-12-04T01:58:56;3.60;;;2.03;;
6787;SDS011;3431;47.966;10.268;2023-12-04T01:59:17;2.30;;;2.10;;
6787;SDS011;3431;47.966;10.268;2023-12-04T01:59:39;3.08;;;2.50;;
6787;SDS011;3431;47.966;10.268;2023-12-04T02:00:02;3.20;;;2.70;;
6787;SDS011;3431;47.966;10.268;2023-12-04T02:00:32;2.90;;;2.42;;
6787;SDS011;3431;47.966;10.268;2023-12-04T02:00:54;3.10;;;2.45;;
6787;SDS011;3431;47.966;10.268;2023-12-04T02:01:16;2.40;;;2.00;;
6787;SDS011;3431;47.966;10.268;2023-12-04T02:01:40;2.60;;;2.35;;
6787;SDS011;3431;47.966;10.268;2023-12-04T02:02:02;2.85;;;2.63;;
6787;SDS011;3431;47.966;10.268;2023-12-04T02:02:25;2.50;;;2.30;;
6787;SDS011;3431;47.966;10.268;2023-12-04T02:02:47;2.40;;;2.20;;
6787;SDS011;3431;47.966;10.268;2023-12-04T02:03:09;2.50;;;2.22;;
6787;SDS011;3431;47.966;10.268;2023-12-04T02:03:31;2.80;;;2.50;;
6787;SDS011;3431;47.966;10.268;2023-12-04T02:03:54;2.40;;;2.20;;
6787;SDS011;3431;47.966;10.268;2023-12-04T02:04:16;2.83;;;2.45;;
6787;SDS011;3431;47.966;10.268;2023-12-04T02:04:38;4.47;;;2.58;;
6787;SDS011;3431;47.966;10.268;2023-12-04T02:05:00;3.72;;;2.42;;
6787;SDS011;3431;47.966;10.268;2023-12-04T02:05:22;2.50;;;2.30;;
6787;SDS011;3431;47.966;10.268;2023-12-04T02:05:45;2.72;;;2.20;;
6787;SDS011;3431;47.966;10.268;2023-12-04T02:06:09;2.45;;;2.20;;
6787;SDS011;3431;47.966;10.268;2023-12-04T02:06:32;2.85;;;2.60;;
6787;SDS011;3431;47.966;10.268;2023-12-04T02:06:55;3.20;;;2.40;;
6787;SDS011;3431;47.966;10.268;2023-12-04T02:07:16;2.65;;;2.38;;
6787;SDS011;3431;47.966;10.268;2023-12-04T02:07:38;2.67;;;2.20;;
6787;SDS011;3431;47.966;10.268;2023-12-04T02:08:03;2.53;;;2.10;;
6787;SDS011;3431;47.966;10.268;2023-12-04T02:08:26;2.55;;;2.30;;
6787;SDS011;3431;47.966;10.268;2023-12-04T02:08:47;2.60;;;2.40;;
6787;SDS011;3431;47.966;10.268;2023-12-04T02:09:09;2.50;;;2.28;;
6787;SDS011;3431;47.966;10.268;2023-12-04T02:09:33;2.67;;;2.30;;
6787;SDS011;3431;47.966;10.268;2023-12-04T02:09:55;2.53;;;2.22;;
6787;SDS011;3431;47.966;10.268;2023-12-04T02:10:17;2.38;;;2.17;;
6787;SDS011;3431;47.966;10.268;2023-12-04T02:10:39;2.50;;;2.30;;
6787;SDS011;3431;47.966;10.268;2023-12-04T02:11:00;2.58;;;2.30;;
6787;SDS011;3431;47.966;10.268;2023-12-04T02:11:22;2.45;;;2.25;;
6787;SDS011;3431;47.966;10.268;2023-12-04T02:11:45;2.40;;;2.20;;
6787;SDS011;3431;47.966;10.268;2023-12-04T02:12:06;2.13;;;1.95;;
6787;SDS011;3431;47.966;10.268;2023-12-04T02:12:28;2.28;;;2.08;;
6787;SDS011;3431;47.966;10.268;2023-12-04T02:12:50;2.63;;;2.33;;
6787;SDS011;3431;47.966;10.268;2023-12-04T02:13:12;2.40;;;2.20;;
6787;SDS011;3431;47.966;10.268;2023-12-04T02:13:33;2.45;;;2.25;;
6787;SDS011;3431;47.966;10.268;2023-12-04T02:13:55;2.40;;;2.20;;
6787;SDS011;3431;47.966;10.268;2023-12-04T02:14:17;2.42;;;2.22;;
6787;SDS011;3431;47.966;10.268;2023-12-04T02:14:39;2.47;;;2.28;;
6787;SDS011;3431;47.966;10.268;2023-12-04T02:15:01;2.33;;;2.13;;